Findlay Airport
KFDY : now visible

Airfield :











YOU CAN JOIN US ON...

 
LOGIN :

Register | Disclaimer

   EN    FR    IT 

 









Legend :    VFR   Marginal VFR   IFR   Intensive IFR   Very Intensive IFR
Visi :
Ceiling :
>= 8 km
>= 3000ft
5 to 8 km
1000 to 3000 ft
1500m to 5 km
500 to 1000 ft
800 to 1500m
200 to 500 ft
< 800m
< 200 ft
Symbols :   Thunderstorms  Fog  Heavy snow  Heavy precipitations  Wind > 20 kt






- Airport Elevation : 813 ft


KFDY - Findlay

CURRENT METAR :
  • 191953Z AUTO 26023G29KT 10SM BKN080 19/M01 A2977 RMK AO2 PK WND 24029/1935 SLP076 T01891006

EXPIRED METARs :
  • 191853Z AUTO 25020G27KT 10SM SCT075 19/01 A2978 RMK AO2 PK WND 25028/1812 SLP083 T01890006
  • 191753Z AUTO 26018G27KT 10SM BKN070 18/01 A2979 RMK AO2 PK WND 26027/1727 SLP084 T01780006 10194 20083 58014

TAF KFDY
Valid from the 19 at 18:00 until the 20 at 18:00 UTC


191737Z 1918/2018 26015G25KT P6SM SCT070
FM200000 30012KT P6SM BKN040
FM200700 33007KT P6SM VCSH BKN035
FM201000 30005KT P6SM OVC035
KZOB FIR / North America



MET'MAP, your aeronautical weather chart ! - Copyright ORBIFLY December 2007 - Disclaimer

ORBIFLY MET'MAP TEAM :

Programming & Development : Alexandra Zaïnal
Concept & original design : Baudouin d'Aumeries
Assistance for programming : Marc-Olivier Méhu
Technical & hardware support : Manuel Goepfert

Contact : metmap@orbifly.com




SOURCES & CREDITS :

   NOAA       Earth
Advisory